sensor_id;sensor_type;location;lat;lon;timestamp;temperature;humidity
78649;DHT22;67962;47.310;9.642;2023-11-22T00:00:14;9.40;82.20
78649;DHT22;67962;47.310;9.642;2023-11-22T00:02:40;9.30;82.30
78649;DHT22;67962;47.310;9.642;2023-11-22T00:05:06;9.40;82.20
78649;DHT22;67962;47.310;9.642;2023-11-22T00:07:32;9.40;81.90
78649;DHT22;67962;47.310;9.642;2023-11-22T00:09:58;9.40;82.00
78649;DHT22;67962;47.310;9.642;2023-11-22T00:12:25;9.60;84.50
78649;DHT22;67962;47.310;9.642;2023-11-22T00:14:51;9.80;82.50
78649;DHT22;67962;47.310;9.642;2023-11-22T00:17:17;9.80;81.70
78649;DHT22;67962;47.310;9.642;2023-11-22T00:19:46;9.70;81.40
78649;DHT22;67962;47.310;9.642;2023-11-22T00:22:12;9.70;81.40
78649;DHT22;67962;47.310;9.642;2023-11-22T00:24:41;9.60;81.40
78649;DHT22;67962;47.310;9.642;2023-11-22T00:27:08;9.60;81.40
78649;DHT22;67962;47.310;9.642;2023-11-22T00:29:34;9.70;81.30
78649;DHT22;67962;47.310;9.642;2023-11-22T00:32:00;9.70;81.10
78649;DHT22;67962;47.310;9.642;2023-11-22T00:34:26;9.70;80.50
78649;DHT22;67962;47.310;9.642;2023-11-22T00:36:52;9.70;80.40
78649;DHT22;67962;47.310;9.642;2023-11-22T00:39:18;9.80;80.40
78649;DHT22;67962;47.310;9.642;2023-11-22T00:41:44;9.80;80.30
78649;DHT22;67962;47.310;9.642;2023-11-22T00:44:11;9.80;80.50
78649;DHT22;67962;47.310;9.642;2023-11-22T00:46:36;9.80;80.30
78649;DHT22;67962;47.310;9.642;2023-11-22T00:49:05;9.70;80.20
78649;DHT22;67962;47.310;9.642;2023-11-22T00:51:31;9.60;80.30
78649;DHT22;67962;47.310;9.642;2023-11-22T00:54:00;9.60;80.70
78649;DHT22;67962;47.310;9.642;2023-11-22T00:56:26;9.50;80.70
78649;DHT22;67962;47.310;9.642;2023-11-22T00:58:52;9.50;80.80
78649;DHT22;67962;47.310;9.642;2023-11-22T01:01:21;9.50;80.90
78649;DHT22;67962;47.310;9.642;2023-11-22T01:03:47;9.50;80.80
78649;DHT22;67962;47.310;9.642;2023-11-22T01:06:13;9.50;80.80
78649;DHT22;67962;47.310;9.642;2023-11-22T01:08:39;9.40;80.70
78649;DHT22;67962;47.310;9.642;2023-11-22T01:11:05;9.40;80.80
78649;DHT22;67962;47.310;9.642;2023-11-22T01:13:32;9.40;80.80
78649;DHT22;67962;47.310;9.642;2023-11-22T01:16:06;9.40;80.90
78649;DHT22;67962;47.310;9.642;2023-11-22T01:18:32;9.40;81.10
78649;DHT22;67962;47.310;9.642;2023-11-22T01:20:58;9.30;81.00
78649;DHT22;67962;47.310;9.642;2023-11-22T01:23:23;9.40;80.80
78649;DHT22;67962;47.310;9.642;2023-11-22T01:25:49;9.30;80.50
78649;DHT22;67962;47.310;9.642;2023-11-22T01:28:15;9.40;80.50
78649;DHT22;67962;47.310;9.642;2023-11-22T01:30:43;9.40;80.10
78649;DHT22;67962;47.310;9.642;2023-11-22T01:33:11;9.40;80.40
78649;DHT22;67962;47.310;9.642;2023-11-22T01:35:37;9.40;80.40
78649;DHT22;67962;47.310;9.642;2023-11-22T01:38:04;9.40;80.40
78649;DHT22;67962;47.310;9.642;2023-11-22T01:40:30;9.50;80.30
78649;DHT22;67962;47.310;9.642;2023-11-22T01:42:56;9.40;80.10
78649;DHT22;67962;47.310;9.642;2023-11-22T01:45:22;9.40;80.40
78649;DHT22;67962;47.310;9.642;2023-11-22T01:47:47;9.30;80.60
78649;DHT22;67962;47.310;9.642;2023-11-22T01:50:13;9.30;80.80
78649;DHT22;67962;47.310;9.642;2023-11-22T01:52:40;9.30;80.60
78649;DHT22;67962;47.310;9.642;2023-11-22T01:55:08;9.30;80.80
78649;DHT22;67962;47.310;9.642;2023-11-22T01:57:34;9.30;80.30
78649;DHT22;67962;47.310;9.642;2023-11-22T02:00:04;9.40;80.10
78649;DHT22;67962;47.310;9.642;2023-11-22T02:02:34;9.40;80.10
78649;DHT22;67962;47.310;9.642;2023-11-22T02:04:59;9.30;79.80
78649;DHT22;67962;47.310;9.642;2023-11-22T02:07:28;9.30;80.30
78649;DHT22;67962;47.310;9.642;2023-11-22T02:09:53;9.30;80.00
78649;DHT22;67962;47.310;9.642;2023-11-22T02:12:19;9.30;80.30
78649;DHT22;67962;47.310;9.642;2023-11-22T02:14:46;9.30;80.20
78649;DHT22;67962;47.310;9.642;2023-11-22T02:17:12;9.20;80.00
78649;DHT22;67962;47.310;9.642;2023-11-22T02:19:38;9.30;80.20
78649;DHT22;67962;47.310;9.642;2023-11-22T02:22:04;9.30;80.20
78649;DHT22;67962;47.310;9.642;2023-11-22T02:24:29;9.30;80.10
78649;DHT22;67962;47.310;9.642;2023-11-22T02:26:55;9.40;80.00
78649;DHT22;67962;47.310;9.642;2023-11-22T02:29:21;9.40;79.90
78649;DHT22;67962;47.310;9.642;2023-11-22T02:31:47;9.40;80.00
78649;DHT22;67962;47.310;9.642;2023-11-22T02:34:13;9.30;79.80
78649;DHT22;67962;47.310;9.642;2023-11-22T02:36:42;9.40;80.00
78649;DHT22;67962;47.310;9.642;2023-11-22T02:39:09;9.40;79.40
78649;DHT22;67962;47.310;9.642;2023-11-22T02:41:34;9.40;79.60
78649;DHT22;67962;47.310;9.642;2023-11-22T02:44:01;9.40;79.60
78649;DHT22;67962;47.310;9.642;2023-11-22T02:46:26;9.40;79.40
78649;DHT22;67962;47.310;9.642;2023-11-22T02:48:52;9.40;78.80
78649;DHT22;67962;47.310;9.642;2023-11-22T02:51:19;9.40;78.60
78649;DHT22;67962;47.310;9.642;2023-11-22T02:53:47;9.30;79.10
78649;DHT22;67962;47.310;9.642;2023-11-22T02:56:14;9.30;79.00
78649;DHT22;67962;47.310;9.642;2023-11-22T02:58:40;9.30;79.00
78649;DHT22;67962;47.310;9.642;2023-11-22T03:01:06;9.40;78.90
78649;DHT22;67962;47.310;9.642;2023-11-22T03:03:35;9.40;78.30
78649;DHT22;67962;47.310;9.642;2023-11-22T03:06:01;9.20;78.30
78649;DHT22;67962;47.310;9.642;2023-11-22T03:08:27;9.20;78.90
78649;DHT22;67962;47.310;9.642;2023-11-22T03:10:53;9.20;78.50
78649;DHT22;67962;47.310;9.642;2023-11-22T03:13:19;9.30;78.00
78649;DHT22;67962;47.310;9.642;2023-11-22T03:15:45;9.20;78.00
78649;DHT22;67962;47.310;9.642;2023-11-22T03:18:10;9.20;78.30
78649;DHT22;67962;47.310;9.642;2023-11-22T03:20:37;9.10;78.80
78649;DHT22;67962;47.310;9.642;2023-11-22T03:23:03;9.20;78.80
78649;DHT22;67962;47.310;9.642;2023-11-22T03:25:30;9.10;79.20
78649;DHT22;67962;47.310;9.642;2023-11-22T03:27:55;9.10;78.30
78649;DHT22;67962;47.310;9.642;2023-11-22T03:30:21;9.10;79.00
78649;DHT22;67962;47.310;9.642;2023-11-22T03:32:47;9.10;79.20
78649;DHT22;67962;47.310;9.642;2023-11-22T03:35:13;9.20;79.20
78649;DHT22;67962;47.310;9.642;2023-11-22T03:37:39;9.20;78.40
78649;DHT22;67962;47.310;9.642;2023-11-22T03:40:05;9.20;78.30
78649;DHT22;67962;47.310;9.642;2023-11-22T03:42:31;9.20;78.30
78649;DHT22;67962;47.310;9.642;2023-11-22T03:44:57;9.20;78.50
78649;DHT22;67962;47.310;9.642;2023-11-22T03:47:24;9.20;78.70
78649;DHT22;67962;47.310;9.642;2023-11-22T03:49:50;9.30;78.90
78649;DHT22;67962;47.310;9.642;2023-11-22T03:52:16;9.30;78.60
78649;DHT22;67962;47.310;9.642;2023-11-22T03:54:41;9.30;79.00
78649;DHT22;67962;47.310;9.642;2023-11-22T03:57:07;9.30;79.20
78649;DHT22;67962;47.310;9.642;2023-11-22T03:59:34;9.30;79.50
78649;DHT22;67962;47.310;9.642;2023-11-22T04:02:00;9.20;79.50
78649;DHT22;67962;47.310;9.642;2023-11-22T04:04:26;9.20;80.00
78649;DHT22;67962;47.310;9.642;2023-11-22T04:06:52;9.10;80.00
78649;DHT22;67962;47.310;9.642;2023-11-22T04:09:18;9.10;80.10
78649;DHT22;67962;47.310;9.642;2023-11-22T04:11:45;9.10;80.20
78649;DHT22;67962;47.310;9.642;2023-11-22T04:14:12;9.10;80.20
78649;DHT22;67962;47.310;9.642;2023-11-22T04:16:37;9.10;80.30
78649;DHT22;67962;47.310;9.642;2023-11-22T04:19:03;9.20;80.30
78649;DHT22;67962;47.310;9.642;2023-11-22T04:21:29;9.10;80.40
78649;DHT22;67962;47.310;9.642;2023-11-22T04:23:54;9.10;80.40
78649;DHT22;67962;47.310;9.642;2023-11-22T04:26:20;9.10;80.60
78649;DHT22;67962;47.310;9.642;2023-11-22T04:28:46;9.10;80.60
78649;DHT22;67962;47.310;9.642;2023-11-22T04:31:11;9.10;80.60
78649;DHT22;67962;47.310;9.642;2023-11-22T04:33:38;9.10;80.70
78649;DHT22;67962;47.310;9.642;2023-11-22T04:36:04;9.10;80.60
78649;DHT22;67962;47.310;9.642;2023-11-22T04:38:30;9.10;80.90
78649;DHT22;67962;47.310;9.642;2023-11-22T04:40:56;9.10;80.80
78649;DHT22;67962;47.310;9.642;2023-11-22T04:43:21;9.10;81.00
78649;DHT22;67962;47.310;9.642;2023-11-22T04:45:48;9.10;80.80
78649;DHT22;67962;47.310;9.642;2023-11-22T04:48:15;9.10;80.80
78649;DHT22;67962;47.310;9.642;2023-11-22T04:50:41;9.10;80.60
78649;DHT22;67962;47.310;9.642;2023-11-22T04:53:09;9.00;80.70
78649;DHT22;67962;47.310;9.642;2023-11-22T04:55:35;9.10;80.80
78649;DHT22;67962;47.310;9.642;2023-11-22T04:58:01;9.00;80.90
78649;DHT22;67962;47.310;9.642;2023-11-22T05:00:27;9.00;81.00
78649;DHT22;67962;47.310;9.642;2023-11-22T05:02:53;9.00;81.10
78649;DHT22;67962;47.310;9.642;2023-11-22T05:05:19;9.00;81.10
78649;DHT22;67962;47.310;9.642;2023-11-22T05:07:45;8.90;81.20
78649;DHT22;67962;47.310;9.642;2023-11-22T05:10:11;8.90;81.50
78649;DHT22;67962;47.310;9.642;2023-11-22T05:12:37;8.90;81.00
78649;DHT22;67962;47.310;9.642;2023-11-22T05:15:03;9.00;81.00
78649;DHT22;67962;47.310;9.642;2023-11-22T05:17:29;9.10;80.80
78649;DHT22;67962;47.310;9.642;2023-11-22T05:19:55;9.00;80.70
78649;DHT22;67962;47.310;9.642;2023-11-22T05:22:21;8.90;80.80
78649;DHT22;67962;47.310;9.642;2023-11-22T05:24:48;8.90;81.10
78649;DHT22;67962;47.310;9.642;2023-11-22T05:27:14;8.90;80.90
78649;DHT22;67962;47.310;9.642;2023-11-22T05:29:40;8.90;81.00
78649;DHT22;67962;47.310;9.642;2023-11-22T05:32:06;9.00;80.70
78649;DHT22;67962;47.310;9.642;2023-11-22T05:34:32;8.90;81.10
78649;DHT22;67962;47.310;9.642;2023-11-22T05:36:58;8.90;80.90
78649;DHT22;67962;47.310;9.642;2023-11-22T05:39:24;8.90;81.00
78649;DHT22;67962;47.310;9.642;2023-11-22T05:41:50;8.90;81.20
78649;DHT22;67962;47.310;9.642;2023-11-22T05:44:16;9.00;81.30
78649;DHT22;67962;47.310;9.642;2023-11-22T05:46:42;9.00;81.00
78649;DHT22;67962;47.310;9.642;2023-11-22T05:49:07;9.00;80.90
78649;DHT22;67962;47.310;9.642;2023-11-22T05:51:33;9.00;81.00
78649;DHT22;67962;47.310;9.642;2023-11-22T05:53:59;9.00;81.10
78649;DHT22;67962;47.310;9.642;2023-11-22T05:56:25;9.00;81.00
78649;DHT22;67962;47.310;9.642;2023-11-22T05:58:51;9.00;81.10
78649;DHT22;67962;47.310;9.642;2023-11-22T06:01:16;9.00;81.20
78649;DHT22;67962;47.310;9.642;2023-11-22T06:03:42;9.00;81.50
78649;DHT22;67962;47.310;9.642;2023-11-22T06:06:08;9.00;81.50
78649;DHT22;67962;47.310;9.642;2023-11-22T06:08:33;9.00;81.40
78649;DHT22;67962;47.310;9.642;2023-11-22T06:10:59;9.00;81.50
78649;DHT22;67962;47.310;9.642;2023-11-22T06:13:26;8.90;81.40
78649;DHT22;67962;47.310;9.642;2023-11-22T06:15:51;8.90;81.30
78649;DHT22;67962;47.310;9.642;2023-11-22T06:18:17;8.80;81.50
78649;DHT22;67962;47.310;9.642;2023-11-22T06:20:44;8.80;81.50
78649;DHT22;67962;47.310;9.642;2023-11-22T06:23:10;8.80;81.40
78649;DHT22;67962;47.310;9.642;2023-11-22T06:25:36;8.70;81.40
78649;DHT22;67962;47.310;9.642;2023-11-22T06:28:05;8.60;81.40
78649;DHT22;67962;47.310;9.642;2023-11-22T06:30:31;8.50;81.40
78649;DHT22;67962;47.310;9.642;2023-11-22T06:32:56;8.60;81.50
78649;DHT22;67962;47.310;9.642;2023-11-22T06:35:22;8.60;81.40
78649;DHT22;67962;47.310;9.642;2023-11-22T06:37:48;8.70;81.20
78649;DHT22;67962;47.310;9.642;2023-11-22T06:40:14;8.70;81.10
78649;DHT22;67962;47.310;9.642;2023-11-22T06:42:40;8.80;81.10
78649;DHT22;67962;47.310;9.642;2023-11-22T06:45:07;8.70;81.50
78649;DHT22;67962;47.310;9.642;2023-11-22T06:47:36;8.70;80.90
78649;DHT22;67962;47.310;9.642;2023-11-22T06:50:02;8.70;81.20
78649;DHT22;67962;47.310;9.642;2023-11-22T06:52:40;8.70;81.20
78649;DHT22;67962;47.310;9.642;2023-11-22T06:55:08;8.80;81.00
78649;DHT22;67962;47.310;9.642;2023-11-22T06:57:35;8.80;81.20
78649;DHT22;67962;47.310;9.642;2023-11-22T07:00:02;8.80;81.00
78649;DHT22;67962;47.310;9.642;2023-11-22T07:02:33;8.80;81.00
78649;DHT22;67962;47.310;9.642;2023-11-22T07:05:03;8.80;81.30
78649;DHT22;67962;47.310;9.642;2023-11-22T07:07:33;8.80;80.80
78649;DHT22;67962;47.310;9.642;2023-11-22T07:09:59;8.80;80.30
78649;DHT22;67962;47.310;9.642;2023-11-22T07:12:25;8.70;80.40
78649;DHT22;67962;47.310;9.642;2023-11-22T07:14:52;8.70;80.90
78649;DHT22;67962;47.310;9.642;2023-11-22T07:17:18;8.80;81.00
78649;DHT22;67962;47.310;9.642;2023-11-22T07:19:44;8.80;81.20
78649;DHT22;67962;47.310;9.642;2023-11-22T07:22:15;8.80;81.20
78649;DHT22;67962;47.310;9.642;2023-11-22T07:24:44;8.90;81.50
78649;DHT22;67962;47.310;9.642;2023-11-22T07:27:14;8.80;81.50
78649;DHT22;67962;47.310;9.642;2023-11-22T07:29:40;8.80;81.60
78649;DHT22;67962;47.310;9.642;2023-11-22T07:32:07;8.80;80.50
78649;DHT22;67962;47.310;9.642;2023-11-22T07:34:37;8.70;80.70
78649;DHT22;67962;47.310;9.642;2023-11-22T07:37:03;8.70;81.20
78649;DHT22;67962;47.310;9.642;2023-11-22T07:39:29;8.60;80.90
78649;DHT22;67962;47.310;9.642;2023-11-22T07:41:55;8.60;80.70
78649;DHT22;67962;47.310;9.642;2023-11-22T07:44:21;8.50;80.60
78649;DHT22;67962;47.310;9.642;2023-11-22T07:46:47;8.50;80.40
78649;DHT22;67962;47.310;9.642;2023-11-22T07:49:13;8.50;80.10
78649;DHT22;67962;47.310;9.642;2023-11-22T07:51:44;8.30;79.00
78649;DHT22;67962;47.310;9.642;2023-11-22T07:54:10;8.30;80.00
78649;DHT22;67962;47.310;9.642;2023-11-22T07:56:44;8.20;80.70
78649;DHT22;67962;47.310;9.642;2023-11-22T07:59:10;8.20;80.20
78649;DHT22;67962;47.310;9.642;2023-11-22T08:01:41;8.10;80.00
78649;DHT22;67962;47.310;9.642;2023-11-22T08:04:08;8.10;80.00
78649;DHT22;67962;47.310;9.642;2023-11-22T08:06:35;8.00;79.60
78649;DHT22;67962;47.310;9.642;2023-11-22T08:09:01;7.90;80.00
78649;DHT22;67962;47.310;9.642;2023-11-22T08:11:27;7.80;79.60
78649;DHT22;67962;47.310;9.642;2023-11-22T08:13:53;7.80;80.30
78649;DHT22;67962;47.310;9.642;2023-11-22T08:16:23;7.80;80.30
78649;DHT22;67962;47.310;9.642;2023-11-22T08:18:48;7.90;80.20
78649;DHT22;67962;47.310;9.642;2023-11-22T08:21:14;7.70;80.20
78649;DHT22;67962;47.310;9.642;2023-11-22T08:23:40;7.80;80.00
78649;DHT22;67962;47.310;9.642;2023-11-22T08:26:06;7.70;79.30
78649;DHT22;67962;47.310;9.642;2023-11-22T08:28:32;7.70;79.90
78649;DHT22;67962;47.310;9.642;2023-11-22T08:30:57;7.70;80.20
78649;DHT22;67962;47.310;9.642;2023-11-22T08:33:23;7.70;79.80
78649;DHT22;67962;47.310;9.642;2023-11-22T08:35:49;7.60;80.00
78649;DHT22;67962;47.310;9.642;2023-11-22T08:38:17;7.50;80.20
78649;DHT22;67962;47.310;9.642;2023-11-22T08:40:44;7.40;80.00
78649;DHT22;67962;47.310;9.642;2023-11-22T08:43:10;7.40;80.40
78649;DHT22;67962;47.310;9.642;2023-11-22T08:45:36;7.40;80.60
78649;DHT22;67962;47.310;9.642;2023-11-22T08:48:01;7.40;80.60
78649;DHT22;67962;47.310;9.642;2023-11-22T08:50:28;7.50;80.20
78649;DHT22;67962;47.310;9.642;2023-11-22T08:52:54;7.40;80.30
78649;DHT22;67962;47.310;9.642;2023-11-22T08:55:20;7.30;80.30
78649;DHT22;67962;47.310;9.642;2023-11-22T08:57:49;7.40;80.40
78649;DHT22;67962;47.310;9.642;2023-11-22T09:00:18;7.30;80.40
78649;DHT22;67962;47.310;9.642;2023-11-22T09:02:51;7.30;81.40
78649;DHT22;67962;47.310;9.642;2023-11-22T09:05:16;7.20;80.70
78649;DHT22;67962;47.310;9.642;2023-11-22T09:07:44;7.30;81.10
78649;DHT22;67962;47.310;9.642;2023-11-22T09:10:10;7.30;81.30
78649;DHT22;67962;47.310;9.642;2023-11-22T09:12:40;7.30;81.00
78649;DHT22;67962;47.310;9.642;2023-11-22T09:15:15;7.30;80.80
78649;DHT22;67962;47.310;9.642;2023-11-22T09:17:43;7.40;80.70
78649;DHT22;67962;47.310;9.642;2023-11-22T09:20:10;7.30;80.80
78649;DHT22;67962;47.310;9.642;2023-11-22T09:22:46;7.40;80.90
78649;DHT22;67962;47.310;9.642;2023-11-22T09:25:14;7.50;80.90
78649;DHT22;67962;47.310;9.642;2023-11-22T09:27:42;7.50;80.30
78649;DHT22;67962;47.310;9.642;2023-11-22T09:30:09;7.50;80.90
78649;DHT22;67962;47.310;9.642;2023-11-22T09:32:46;7.50;80.50
78649;DHT22;67962;47.310;9.642;2023-11-22T09:35:14;7.60;80.60
78649;DHT22;67962;47.310;9.642;2023-11-22T09:37:41;7.60;80.10
78649;DHT22;67962;47.310;9.642;2023-11-22T09:40:10;7.60;79.20
78649;DHT22;67962;47.310;9.642;2023-11-22T09:42:37;7.50;79.70
78649;DHT22;67962;47.310;9.642;2023-11-22T09:45:03;7.50;80.10
78649;DHT22;67962;47.310;9.642;2023-11-22T09:47:32;7.50;80.60
78649;DHT22;67962;47.310;9.642;2023-11-22T09:50:01;7.60;80.70
78649;DHT22;67962;47.310;9.642;2023-11-22T09:52:33;7.60;80.30
78649;DHT22;67962;47.310;9.642;2023-11-22T09:55:02;7.60;80.80
78649;DHT22;67962;47.310;9.642;2023-11-22T09:57:29;7.60;80.50
78649;DHT22;67962;47.310;9.642;2023-11-22T09:59:57;7.50;80.60
78649;DHT22;67962;47.310;9.642;2023-11-22T10:02:23;7.50;80.80
78649;DHT22;67962;47.310;9.642;2023-11-22T10:04:53;7.60;80.60
78649;DHT22;67962;47.310;9.642;2023-11-22T10:07:19;7.70;80.60
78649;DHT22;67962;47.310;9.642;2023-11-22T10:09:45;7.70;80.10
78649;DHT22;67962;47.310;9.642;2023-11-22T10:12:12;7.70;80.30
78649;DHT22;67962;47.310;9.642;2023-11-22T10:14:38;7.70;80.40
78649;DHT22;67962;47.310;9.642;2023-11-22T10:17:04;7.60;80.50
78649;DHT22;67962;47.310;9.642;2023-11-22T10:19:31;7.60;81.30
78649;DHT22;67962;47.310;9.642;2023-11-22T10:22:05;7.70;80.40
78649;DHT22;67962;47.310;9.642;2023-11-22T10:24:34;7.60;80.50
78649;DHT22;67962;47.310;9.642;2023-11-22T10:27:03;7.60;80.30
78649;DHT22;67962;47.310;9.642;2023-11-22T10:29:29;7.70;80.30
78649;DHT22;67962;47.310;9.642;2023-11-22T10:31:55;7.70;80.10
78649;DHT22;67962;47.310;9.642;2023-11-22T10:34:23;7.60;79.80
78649;DHT22;67962;47.310;9.642;2023-11-22T10:36:49;7.60;80.10
78649;DHT22;67962;47.310;9.642;2023-11-22T10:39:19;7.70;79.90
78649;DHT22;67962;47.310;9.642;2023-11-22T10:41:45;7.70;79.60
78649;DHT22;67962;47.310;9.642;2023-11-22T10:44:11;7.60;79.20
78649;DHT22;67962;47.310;9.642;2023-11-22T10:46:39;7.60;79.80
78649;DHT22;67962;47.310;9.642;2023-11-22T10:49:05;7.60;79.20
78649;DHT22;67962;47.310;9.642;2023-11-22T10:51:32;7.70;79.00
78649;DHT22;67962;47.310;9.642;2023-11-22T10:53:58;7.70;78.70
78649;DHT22;67962;47.310;9.642;2023-11-22T10:56:26;7.50;77.10
78649;DHT22;67962;47.310;9.642;2023-11-22T10:58:57;7.40;78.30
78649;DHT22;67962;47.310;9.642;2023-11-22T11:01:26;7.40;79.00
78649;DHT22;67962;47.310;9.642;2023-11-22T11:04:09;7.30;78.90
78649;DHT22;67962;47.310;9.642;2023-11-22T11:06:37;7.40;79.10
78649;DHT22;67962;47.310;9.642;2023-11-22T11:09:04;7.30;79.00
78649;DHT22;67962;47.310;9.642;2023-11-22T11:11:35;7.30;79.10
78649;DHT22;67962;47.310;9.642;2023-11-22T11:14:03;7.30;79.00
78649;DHT22;67962;47.310;9.642;2023-11-22T11:16:32;7.40;78.80
78649;DHT22;67962;47.310;9.642;2023-11-22T11:19:00;7.40;77.00
78649;DHT22;67962;47.310;9.642;2023-11-22T11:21:26;7.30;78.20
78649;DHT22;67962;47.310;9.642;2023-11-22T11:23:52;7.50;78.50
78649;DHT22;67962;47.310;9.642;2023-11-22T11:26:21;7.50;76.40
78649;DHT22;67962;47.310;9.642;2023-11-22T11:28:51;7.40;76.20
78649;DHT22;67962;47.310;9.642;2023-11-22T11:31:20;7.40;76.10
78649;DHT22;67962;47.310;9.642;2023-11-22T11:36:29;7.50;77.70
78649;DHT22;67962;47.310;9.642;2023-11-22T11:39:01;7.40;77.80
78649;DHT22;67962;47.310;9.642;2023-11-22T11:41:33;7.40;76.50
78649;DHT22;67962;47.310;9.642;2023-11-22T11:44:01;7.40;77.30
78649;DHT22;67962;47.310;9.642;2023-11-22T11:46:27;7.80;78.90
78649;DHT22;67962;47.310;9.642;2023-11-22T11:48:54;7.90;76.50
78649;DHT22;67962;47.310;9.642;2023-11-22T11:51:24;7.90;75.20
78649;DHT22;67962;47.310;9.642;2023-11-22T11:53:51;7.70;76.10
78649;DHT22;67962;47.310;9.642;2023-11-22T11:56:17;7.50;74.50
78649;DHT22;67962;47.310;9.642;2023-11-22T11:58:48;7.40;75.80
78649;DHT22;67962;47.310;9.642;2023-11-22T12:01:16;8.00;84.60
78649;DHT22;67962;47.310;9.642;2023-11-22T12:03:43;8.60;78.40
78649;DHT22;67962;47.310;9.642;2023-11-22T12:06:15;8.60;74.60
78649;DHT22;67962;47.310;9.642;2023-11-22T12:08:41;8.50;73.00
78649;DHT22;67962;47.310;9.642;2023-11-22T12:11:07;8.10;72.60
78649;DHT22;67962;47.310;9.642;2023-11-22T12:13:34;7.90;73.60
78649;DHT22;67962;47.310;9.642;2023-11-22T12:16:02;7.90;75.60
78649;DHT22;67962;47.310;9.642;2023-11-22T12:18:40;7.80;75.50
78649;DHT22;67962;47.310;9.642;2023-11-22T12:21:06;7.80;75.40
78649;DHT22;67962;47.310;9.642;2023-11-22T12:23:32;7.80;75.20
78649;DHT22;67962;47.310;9.642;2023-11-22T12:25:59;7.90;75.40
78649;DHT22;67962;47.310;9.642;2023-11-22T12:28:27;7.90;74.60
78649;DHT22;67962;47.310;9.642;2023-11-22T12:30:53;7.90;74.10
78649;DHT22;67962;47.310;9.642;2023-11-22T12:33:19;7.80;74.40
78649;DHT22;67962;47.310;9.642;2023-11-22T12:35:49;7.80;75.00
78649;DHT22;67962;47.310;9.642;2023-11-22T12:38:14;7.90;75.30
78649;DHT22;67962;47.310;9.642;2023-11-22T12:40:45;7.80;74.80
78649;DHT22;67962;47.310;9.642;2023-11-22T12:43:12;7.80;75.00
78649;DHT22;67962;47.310;9.642;2023-11-22T12:45:39;7.80;75.10
78649;DHT22;67962;47.310;9.642;2023-11-22T12:48:25;7.80;75.80
78649;DHT22;67962;47.310;9.642;2023-11-22T12:50:53;7.80;74.50
78649;DHT22;67962;47.310;9.642;2023-11-22T12:53:19;7.70;75.00
78649;DHT22;67962;47.310;9.642;2023-11-22T12:55:49;7.70;78.10
78649;DHT22;67962;47.310;9.642;2023-11-22T12:58:16;8.20;79.50
78649;DHT22;67962;47.310;9.642;2023-11-22T13:00:47;8.70;73.40
78649;DHT22;67962;47.310;9.642;2023-11-22T13:03:14;8.90;72.20
78649;DHT22;67962;47.310;9.642;2023-11-22T13:05:41;8.60;72.90
78649;DHT22;67962;47.310;9.642;2023-11-22T13:08:09;8.50;71.90
78649;DHT22;67962;47.310;9.642;2023-11-22T13:10:45;8.40;74.80
78649;DHT22;67962;47.310;9.642;2023-11-22T13:13:20;8.70;73.70
78649;DHT22;67962;47.310;9.642;2023-11-22T13:15:45;8.70;70.90
78649;DHT22;67962;47.310;9.642;2023-11-22T13:18:11;8.60;72.50
78649;DHT22;67962;47.310;9.642;2023-11-22T13:20:37;8.60;72.40
78649;DHT22;67962;47.310;9.642;2023-11-22T13:23:06;8.40;72.00
78649;DHT22;67962;47.310;9.642;2023-11-22T13:25:33;8.10;72.60
78649;DHT22;67962;47.310;9.642;2023-11-22T13:27:58;7.90;73.50
78649;DHT22;67962;47.310;9.642;2023-11-22T13:30:25;7.60;72.90
78649;DHT22;67962;47.310;9.642;2023-11-22T13:32:57;7.50;74.70
78649;DHT22;67962;47.310;9.642;2023-11-22T13:35:24;7.50;74.90
78649;DHT22;67962;47.310;9.642;2023-11-22T13:37:50;7.60;74.80
78649;DHT22;67962;47.310;9.642;2023-11-22T13:40:17;7.50;74.00
78649;DHT22;67962;47.310;9.642;2023-11-22T13:42:48;7.40;75.30
78649;DHT22;67962;47.310;9.642;2023-11-22T13:45:16;7.40;75.10
78649;DHT22;67962;47.310;9.642;2023-11-22T13:47:46;7.20;75.40
78649;DHT22;67962;47.310;9.642;2023-11-22T13:50:17;7.40;75.70
78649;DHT22;67962;47.310;9.642;2023-11-22T13:52:51;7.40;75.70
78649;DHT22;67962;47.310;9.642;2023-11-22T13:55:17;7.30;75.70
78649;DHT22;67962;47.310;9.642;2023-11-22T13:57:50;7.30;75.40
78649;DHT22;67962;47.310;9.642;2023-11-22T14:00:17;7.30;75.80
78649;DHT22;67962;47.310;9.642;2023-11-22T14:02:48;7.30;75.20
78649;DHT22;67962;47.310;9.642;2023-11-22T14:05:17;7.30;75.00
78649;DHT22;67962;47.310;9.642;2023-11-22T14:07:43;7.20;75.50
78649;DHT22;67962;47.310;9.642;2023-11-22T14:10:11;7.20;75.90
78649;DHT22;67962;47.310;9.642;2023-11-22T14:12:40;7.10;76.00
78649;DHT22;67962;47.310;9.642;2023-11-22T14:15:06;7.10;76.30
78649;DHT22;67962;47.310;9.642;2023-11-22T14:17:32;7.10;76.00
78649;DHT22;67962;47.310;9.642;2023-11-22T14:19:57;7.10;76.30
78649;DHT22;67962;47.310;9.642;2023-11-22T14:22:24;7.00;76.40
78649;DHT22;67962;47.310;9.642;2023-11-22T14:24:52;7.10;76.80
78649;DHT22;67962;47.310;9.642;2023-11-22T14:27:18;7.10;76.80
78649;DHT22;67962;47.310;9.642;2023-11-22T14:29:45;7.20;76.60
78649;DHT22;67962;47.310;9.642;2023-11-22T14:32:14;7.20;75.90
78649;DHT22;67962;47.310;9.642;2023-11-22T14:34:40;7.20;74.50
78649;DHT22;67962;47.310;9.642;2023-11-22T14:37:09;7.10;75.40
78649;DHT22;67962;47.310;9.642;2023-11-22T14:39:35;7.10;75.80
78649;DHT22;67962;47.310;9.642;2023-11-22T14:42:01;7.10;76.30
78649;DHT22;67962;47.310;9.642;2023-11-22T14:44:26;7.10;76.40
78649;DHT22;67962;47.310;9.642;2023-11-22T14:46:52;7.10;76.30
78649;DHT22;67962;47.310;9.642;2023-11-22T14:49:18;7.10;75.60
78649;DHT22;67962;47.310;9.642;2023-11-22T14:51:46;7.10;76.60
78649;DHT22;67962;47.310;9.642;2023-11-22T14:54:13;7.10;76.00
78649;DHT22;67962;47.310;9.642;2023-11-22T14:56:38;7.10;76.40
78649;DHT22;67962;47.310;9.642;2023-11-22T14:59:05;7.20;76.70
78649;DHT22;67962;47.310;9.642;2023-11-22T15:01:31;7.00;76.90
78649;DHT22;67962;47.310;9.642;2023-11-22T15:03:57;7.00;77.20
78649;DHT22;67962;47.310;9.642;2023-11-22T15:06:23;7.00;77.40
78649;DHT22;67962;47.310;9.642;2023-11-22T15:08:49;6.90;77.00
78649;DHT22;67962;47.310;9.642;2023-11-22T15:11:17;6.90;76.80
78649;DHT22;67962;47.310;9.642;2023-11-22T15:13:47;6.90;77.00
78649;DHT22;67962;47.310;9.642;2023-11-22T15:16:12;6.90;76.70
78649;DHT22;67962;47.310;9.642;2023-11-22T15:18:40;6.90;77.20
78649;DHT22;67962;47.310;9.642;2023-11-22T15:21:06;6.80;77.00
78649;DHT22;67962;47.310;9.642;2023-11-22T15:23:31;6.80;77.00
78649;DHT22;67962;47.310;9.642;2023-11-22T15:25:57;6.80;76.90
78649;DHT22;67962;47.310;9.642;2023-11-22T15:28:25;6.70;76.70
78649;DHT22;67962;47.310;9.642;2023-11-22T15:30:53;6.70;77.20
78649;DHT22;67962;47.310;9.642;2023-11-22T15:33:23;6.70;77.60
78649;DHT22;67962;47.310;9.642;2023-11-22T15:35:49;6.60;77.70
78649;DHT22;67962;47.310;9.642;2023-11-22T15:38:14;6.50;78.30
78649;DHT22;67962;47.310;9.642;2023-11-22T15:40:40;6.50;78.40
78649;DHT22;67962;47.310;9.642;2023-11-22T15:43:06;6.40;78.20
78649;DHT22;67962;47.310;9.642;2023-11-22T15:45:33;6.40;78.50